sensor_id;sensor_type;location;lat;lon;timestamp;pressure;altitude;pressure_sealevel;temperature;humidity
71948;BME280;63257;55.082;38.772;2023-11-19T00:01:23;100732.41;;;-7.78;77.15
71948;BME280;63257;55.082;38.772;2023-11-19T00:03:49;100748.88;;;-7.46;76.48
71948;BME280;63257;55.082;38.772;2023-11-19T00:06:15;100737.72;;;-7.46;75.83
71948;BME280;63257;55.082;38.772;2023-11-19T00:08:42;100760.50;;;-7.30;76.03
71948;BME280;63257;55.082;38.772;2023-11-19T00:11:11;100753.91;;;-7.22;75.12
71948;BME280;63257;55.082;38.772;2023-11-19T00:13:41;100761.56;;;-7.23;74.89
71948;BME280;63257;55.082;38.772;2023-11-19T00:16:07;100751.75;;;-7.35;75.13
71948;BME280;63257;55.082;38.772;2023-11-19T00:18:35;100759.28;;;-7.41;75.48
71948;BME280;63257;55.082;38.772;2023-11-19T00:21:05;100723.47;;;-7.64;76.06
71948;BME280;63257;55.082;38.772;2023-11-19T00:23:33;100750.25;;;-7.56;75.73
71948;BME280;63257;55.082;38.772;2023-11-19T00:25:59;100759.59;;;-7.58;75.91
71948;BME280;63257;55.082;38.772;2023-11-19T00:28:25;100738.63;;;-7.72;76.18
71948;BME280;63257;55.082;38.772;2023-11-19T00:30:51;100743.03;;;-7.68;76.63
71948;BME280;63257;55.082;38.772;2023-11-19T00:33:18;100748.25;;;-7.64;77.33
71948;BME280;63257;55.082;38.772;2023-11-19T00:35:44;100740.88;;;-7.55;76.92
71948;BME280;63257;55.082;38.772;2023-11-19T00:38:09;100735.53;;;-7.36;75.22
71948;BME280;63257;55.082;38.772;2023-11-19T00:40:35;100718.38;;;-7.37;73.75
71948;BME280;63257;55.082;38.772;2023-11-19T00:43:01;100724.50;;;-7.33;73.09
71948;BME280;63257;55.082;38.772;2023-11-19T00:45:27;100740.34;;;-7.45;73.52
71948;BME280;63257;55.082;38.772;2023-11-19T00:47:53;100737.50;;;-7.54;74.94
71948;BME280;63257;55.082;38.772;2023-11-19T00:50:19;100700.44;;;-7.90;76.01
71948;BME280;63257;55.082;38.772;2023-11-19T00:52:46;100725.50;;;-7.81;75.87
71948;BME280;63257;55.082;38.772;2023-11-19T00:55:13;100736.06;;;-7.72;74.38
71948;BME280;63257;55.082;38.772;2023-11-19T00:57:40;100737.00;;;-7.68;73.84
71948;BME280;63257;55.082;38.772;2023-11-19T01:00:06;100739.75;;;-7.63;73.60
71948;BME280;63257;55.082;38.772;2023-11-19T01:02:47;100739.06;;;-7.58;74.10
71948;BME280;63257;55.082;38.772;2023-11-19T01:05:15;100705.59;;;-7.62;72.83
71948;BME280;63257;55.082;38.772;2023-11-19T01:07:41;100702.97;;;-7.64;72.67
71948;BME280;63257;55.082;38.772;2023-11-19T01:10:07;100716.69;;;-7.63;73.09
71948;BME280;63257;55.082;38.772;2023-11-19T01:12:34;100723.03;;;-7.52;72.85
71948;BME280;63257;55.082;38.772;2023-11-19T01:15:00;100694.81;;;-7.78;73.26
71948;BME280;63257;55.082;38.772;2023-11-19T01:17:31;100705.03;;;-7.79;74.37
71948;BME280;63257;55.082;38.772;2023-11-19T01:20:00;100706.06;;;-7.74;74.14
71948;BME280;63257;55.082;38.772;2023-11-19T01:22:25;100713.19;;;-7.65;72.98
71948;BME280;63257;55.082;38.772;2023-11-19T01:24:52;100701.25;;;-7.65;73.31
71948;BME280;63257;55.082;38.772;2023-11-19T01:27:19;100713.00;;;-7.72;74.00
71948;BME280;63257;55.082;38.772;2023-11-19T01:29:45;100708.50;;;-7.79;74.88
71948;BME280;63257;55.082;38.772;2023-11-19T01:32:11;100694.28;;;-7.69;75.31
71948;BME280;63257;55.082;38.772;2023-11-19T01:34:38;100702.50;;;-7.52;74.84
71948;BME280;63257;55.082;38.772;2023-11-19T01:37:04;100683.91;;;-7.45;74.69
71948;BME280;63257;55.082;38.772;2023-11-19T01:39:30;100687.50;;;-7.12;73.07
71948;BME280;63257;55.082;38.772;2023-11-19T01:41:55;100690.50;;;-6.97;71.61
71948;BME280;63257;55.082;38.772;2023-11-19T01:44:21;100705.50;;;-6.82;71.80
71948;BME280;63257;55.082;38.772;2023-11-19T01:46:47;100696.91;;;-6.84;72.34
71948;BME280;63257;55.082;38.772;2023-11-19T01:49:15;100689.03;;;-6.89;71.96
71948;BME280;63257;55.082;38.772;2023-11-19T01:51:42;100698.34;;;-6.63;72.59
71948;BME280;63257;55.082;38.772;2023-11-19T01:54:08;100702.91;;;-6.53;72.00
71948;BME280;63257;55.082;38.772;2023-11-19T01:56:35;100703.84;;;-6.51;71.04
71948;BME280;63257;55.082;38.772;2023-11-19T01:59:03;100699.91;;;-6.38;71.51
71948;BME280;63257;55.082;38.772;2023-11-19T02:01:29;100705.66;;;-6.47;72.13
71948;BME280;63257;55.082;38.772;2023-11-19T02:03:55;100705.91;;;-6.38;72.14
71948;BME280;63257;55.082;38.772;2023-11-19T02:06:22;100693.84;;;-6.40;72.08
71948;BME280;63257;55.082;38.772;2023-11-19T02:08:49;100702.13;;;-6.19;71.83
71948;BME280;63257;55.082;38.772;2023-11-19T02:11:15;100701.53;;;-6.10;71.30
71948;BME280;63257;55.082;38.772;2023-11-19T02:13:41;100722.53;;;-5.91;71.63
71948;BME280;63257;55.082;38.772;2023-11-19T02:16:07;100719.97;;;-5.91;71.66
71948;BME280;63257;55.082;38.772;2023-11-19T02:18:37;100700.19;;;-5.94;71.60
71948;BME280;63257;55.082;38.772;2023-11-19T02:21:03;100720.22;;;-5.82;71.37
71948;BME280;63257;55.082;38.772;2023-11-19T02:23:31;100726.13;;;-5.85;70.85
71948;BME280;63257;55.082;38.772;2023-11-19T02:28:32;100702.53;;;-6.03;72.35
71948;BME280;63257;55.082;38.772;2023-11-19T02:30:59;100727.84;;;-5.85;71.98
71948;BME280;63257;55.082;38.772;2023-11-19T02:33:25;100706.16;;;-5.95;72.35
71948;BME280;63257;55.082;38.772;2023-11-19T02:35:51;100704.72;;;-5.85;72.58
71948;BME280;63257;55.082;38.772;2023-11-19T02:38:17;100734.41;;;-5.63;72.33
71948;BME280;63257;55.082;38.772;2023-11-19T02:40:42;100737.09;;;-5.58;71.50
71948;BME280;63257;55.082;38.772;2023-11-19T02:43:08;100732.94;;;-5.53;71.72
71948;BME280;63257;55.082;38.772;2023-11-19T02:45:34;100729.38;;;-5.58;71.10
71948;BME280;63257;55.082;38.772;2023-11-19T02:48:02;100731.56;;;-5.39;70.94
71948;BME280;63257;55.082;38.772;2023-11-19T02:50:28;100730.59;;;-5.44;70.84
71948;BME280;63257;55.082;38.772;2023-11-19T02:52:55;100732.41;;;-5.40;70.49
71948;BME280;63257;55.082;38.772;2023-11-19T02:55:23;100711.47;;;-5.54;71.26
71948;BME280;63257;55.082;38.772;2023-11-19T02:57:50;100729.19;;;-5.31;71.22
71948;BME280;63257;55.082;38.772;2023-11-19T03:00:21;100692.78;;;-5.47;71.14
71948;BME280;63257;55.082;38.772;2023-11-19T03:02:51;100718.72;;;-5.37;70.75
71948;BME280;63257;55.082;38.772;2023-11-19T03:05:26;100718.78;;;-5.36;71.15
71948;BME280;63257;55.082;38.772;2023-11-19T03:07:52;100680.03;;;-5.42;70.69
71948;BME280;63257;55.082;38.772;2023-11-19T03:10:18;100695.69;;;-5.33;70.66
71948;BME280;63257;55.082;38.772;2023-11-19T03:12:45;100696.47;;;-5.35;71.16
71948;BME280;63257;55.082;38.772;2023-11-19T03:15:13;100697.34;;;-5.35;71.47
71948;BME280;63257;55.082;38.772;2023-11-19T03:17:41;100689.84;;;-5.25;71.54
71948;BME280;63257;55.082;38.772;2023-11-19T03:20:10;100685.72;;;-5.19;71.71
71948;BME280;63257;55.082;38.772;2023-11-19T03:22:41;100690.91;;;-5.16;71.71
71948;BME280;63257;55.082;38.772;2023-11-19T03:25:08;100669.19;;;-5.29;71.48
71948;BME280;63257;55.082;38.772;2023-11-19T03:27:36;100655.56;;;-5.24;71.93
71948;BME280;63257;55.082;38.772;2023-11-19T03:30:08;100677.22;;;-5.15;71.07
71948;BME280;63257;55.082;38.772;2023-11-19T03:32:38;100666.19;;;-5.09;71.30
71948;BME280;63257;55.082;38.772;2023-11-19T03:35:05;100669.63;;;-5.08;71.58
71948;BME280;63257;55.082;38.772;2023-11-19T03:37:35;100645.31;;;-5.21;71.22
71948;BME280;63257;55.082;38.772;2023-11-19T03:40:02;100668.75;;;-5.09;71.88
71948;BME280;63257;55.082;38.772;2023-11-19T03:42:30;100662.88;;;-5.03;72.17
71948;BME280;63257;55.082;38.772;2023-11-19T03:44:58;100644.72;;;-5.11;71.30
71948;BME280;63257;55.082;38.772;2023-11-19T03:47:24;100661.97;;;-5.07;71.81
71948;BME280;63257;55.082;38.772;2023-11-19T03:49:51;100662.72;;;-5.11;71.95
71948;BME280;63257;55.082;38.772;2023-11-19T03:52:18;100628.22;;;-5.19;71.52
71948;BME280;63257;55.082;38.772;2023-11-19T03:54:44;100648.16;;;-5.09;71.55
71948;BME280;63257;55.082;38.772;2023-11-19T03:57:14;100623.84;;;-5.23;71.43
71948;BME280;63257;55.082;38.772;2023-11-19T03:59:41;100616.94;;;-5.24;71.56
71948;BME280;63257;55.082;38.772;2023-11-19T04:02:07;100612.56;;;-5.29;71.50
71948;BME280;63257;55.082;38.772;2023-11-19T04:04:33;100651.53;;;-5.12;71.42
71948;BME280;63257;55.082;38.772;2023-11-19T04:07:00;100648.19;;;-5.07;71.68
71948;BME280;63257;55.082;38.772;2023-11-19T04:09:29;100641.03;;;-5.21;71.87
71948;BME280;63257;55.082;38.772;2023-11-19T04:11:56;100630.53;;;-5.32;71.98
71948;BME280;63257;55.082;38.772;2023-11-19T04:14:22;100630.72;;;-5.22;72.42
71948;BME280;63257;55.082;38.772;2023-11-19T04:16:48;100633.00;;;-4.95;71.41
71948;BME280;63257;55.082;38.772;2023-11-19T04:19:14;100634.66;;;-4.99;71.52
71948;BME280;63257;55.082;38.772;2023-11-19T04:21:40;100607.56;;;-5.21;72.15
71948;BME280;63257;55.082;38.772;2023-11-19T04:24:08;100621.41;;;-5.16;72.87
71948;BME280;63257;55.082;38.772;2023-11-19T04:26:34;100605.06;;;-5.19;72.67
71948;BME280;63257;55.082;38.772;2023-11-19T04:29:00;100624.28;;;-5.02;72.29
71948;BME280;63257;55.082;38.772;2023-11-19T04:31:29;100597.25;;;-5.22;72.17
71948;BME280;63257;55.082;38.772;2023-11-19T04:33:58;100629.19;;;-5.13;72.13
71948;BME280;63257;55.082;38.772;2023-11-19T04:36:26;100627.56;;;-5.09;72.21
71948;BME280;63257;55.082;38.772;2023-11-19T04:38:53;100586.03;;;-5.26;72.82
71948;BME280;63257;55.082;38.772;2023-11-19T04:41:18;100604.47;;;-5.06;72.05
71948;BME280;63257;55.082;38.772;2023-11-19T04:43:44;100612.16;;;-5.07;72.47
71948;BME280;63257;55.082;38.772;2023-11-19T04:46:10;100613.88;;;-5.08;72.96
71948;BME280;63257;55.082;38.772;2023-11-19T04:48:36;100589.47;;;-5.25;73.23
71948;BME280;63257;55.082;38.772;2023-11-19T04:51:04;100601.56;;;-5.21;73.00
71948;BME280;63257;55.082;38.772;2023-11-19T04:53:31;100608.75;;;-5.06;72.41
71948;BME280;63257;55.082;38.772;2023-11-19T04:55:57;100634.69;;;-4.97;72.42
71948;BME280;63257;55.082;38.772;2023-11-19T04:58:22;100635.56;;;-4.97;72.64
71948;BME280;63257;55.082;38.772;2023-11-19T05:00:48;100638.97;;;-4.98;72.61
71948;BME280;63257;55.082;38.772;2023-11-19T05:03:14;100639.56;;;-5.11;72.50
71948;BME280;63257;55.082;38.772;2023-11-19T05:05:40;100635.44;;;-5.03;72.07
71948;BME280;63257;55.082;38.772;2023-11-19T05:08:05;100626.75;;;-5.08;72.17
71948;BME280;63257;55.082;38.772;2023-11-19T05:10:31;100650.25;;;-4.91;71.54
71948;BME280;63257;55.082;38.772;2023-11-19T05:12:57;100647.88;;;-4.82;70.68
71948;BME280;63257;55.082;38.772;2023-11-19T05:15:23;100626.81;;;-5.05;70.56
71948;BME280;63257;55.082;38.772;2023-11-19T05:17:49;100642.47;;;-4.94;70.80
71948;BME280;63257;55.082;38.772;2023-11-19T05:20:15;100645.22;;;-4.86;71.23
71948;BME280;63257;55.082;38.772;2023-11-19T05:22:42;100642.75;;;-4.80;71.05
71948;BME280;63257;55.082;38.772;2023-11-19T05:25:09;100634.06;;;-4.85;71.52
71948;BME280;63257;55.082;38.772;2023-11-19T05:27:36;100649.75;;;-4.74;71.25
71948;BME280;63257;55.082;38.772;2023-11-19T05:30:04;100639.50;;;-4.71;70.78
71948;BME280;63257;55.082;38.772;2023-11-19T05:32:32;100646.66;;;-4.56;70.36
71948;BME280;63257;55.082;38.772;2023-11-19T05:34:58;100621.69;;;-4.61;70.20
71948;BME280;63257;55.082;38.772;2023-11-19T05:37:24;100644.31;;;-4.44;69.75
71948;BME280;63257;55.082;38.772;2023-11-19T05:39:50;100631.22;;;-4.55;69.69
71948;BME280;63257;55.082;38.772;2023-11-19T05:42:16;100621.03;;;-4.50;68.31
71948;BME280;63257;55.082;38.772;2023-11-19T05:44:42;100642.75;;;-4.36;68.86
71948;BME280;63257;55.082;38.772;2023-11-19T05:47:08;100622.09;;;-4.39;68.54
71948;BME280;63257;55.082;38.772;2023-11-19T05:49:34;100644.72;;;-4.24;68.44
71948;BME280;63257;55.082;38.772;2023-11-19T05:52:00;100613.72;;;-4.27;68.48
71948;BME280;63257;55.082;38.772;2023-11-19T05:54:28;100640.41;;;-4.23;68.59
71948;BME280;63257;55.082;38.772;2023-11-19T05:56:54;100645.50;;;-4.27;68.62
71948;BME280;63257;55.082;38.772;2023-11-19T05:59:20;100628.16;;;-4.37;69.21
71948;BME280;63257;55.082;38.772;2023-11-19T06:01:48;100643.78;;;-4.26;68.41
71948;BME280;63257;55.082;38.772;2023-11-19T06:04:14;100639.59;;;-4.21;67.32
71948;BME280;63257;55.082;38.772;2023-11-19T06:06:40;100642.19;;;-4.19;67.28
71948;BME280;63257;55.082;38.772;2023-11-19T06:09:06;100620.44;;;-4.35;67.61
71948;BME280;63257;55.082;38.772;2023-11-19T06:11:33;100650.81;;;-4.20;67.62
71948;BME280;63257;55.082;38.772;2023-11-19T06:13:59;100644.84;;;-4.16;66.84
71948;BME280;63257;55.082;38.772;2023-11-19T06:16:25;100656.78;;;-4.21;66.29
71948;BME280;63257;55.082;38.772;2023-11-19T06:18:51;100666.19;;;-4.23;67.36
71948;BME280;63257;55.082;38.772;2023-11-19T06:21:17;100654.09;;;-4.28;66.49
71948;BME280;63257;55.082;38.772;2023-11-19T06:23:43;100658.53;;;-4.20;67.14
71948;BME280;63257;55.082;38.772;2023-11-19T06:26:08;100654.19;;;-4.23;67.18
71948;BME280;63257;55.082;38.772;2023-11-19T06:28:34;100661.94;;;-4.21;67.24
71948;BME280;63257;55.082;38.772;2023-11-19T06:31:00;100651.06;;;-4.05;67.34
71948;BME280;63257;55.082;38.772;2023-11-19T06:33:26;100646.00;;;-3.99;67.10
71948;BME280;63257;55.082;38.772;2023-11-19T06:35:52;100646.78;;;-4.03;66.75
71948;BME280;63257;55.082;38.772;2023-11-19T06:38:20;100631.38;;;-4.00;65.88
71948;BME280;63257;55.082;38.772;2023-11-19T06:40:46;100623.78;;;-3.90;65.35
71948;BME280;63257;55.082;38.772;2023-11-19T06:43:12;100635.69;;;-3.99;65.18
71948;BME280;63257;55.082;38.772;2023-11-19T06:45:37;100634.13;;;-3.89;62.59
71948;BME280;63257;55.082;38.772;2023-11-19T06:48:04;100632.50;;;-3.82;63.61
71948;BME280;63257;55.082;38.772;2023-11-19T06:50:31;100622.13;;;-3.88;63.55
71948;BME280;63257;55.082;38.772;2023-11-19T06:52:56;100635.25;;;-3.73;63.94
71948;BME280;63257;55.082;38.772;2023-11-19T06:55:22;100637.84;;;-3.73;64.47
71948;BME280;63257;55.082;38.772;2023-11-19T06:57:48;100628.16;;;-3.86;65.01
71948;BME280;63257;55.082;38.772;2023-11-19T07:00:14;100631.88;;;-3.69;64.60
71948;BME280;63257;55.082;38.772;2023-11-19T07:02:40;100618.69;;;-3.87;63.77
71948;BME280;63257;55.082;38.772;2023-11-19T07:05:06;100630.94;;;-3.74;63.44
71948;BME280;63257;55.082;38.772;2023-11-19T07:07:34;100630.81;;;-3.83;62.37
71948;BME280;63257;55.082;38.772;2023-11-19T07:10:01;100613.47;;;-3.90;62.64
71948;BME280;63257;55.082;38.772;2023-11-19T07:12:29;100610.81;;;-3.97;61.54
71948;BME280;63257;55.082;38.772;2023-11-19T07:14:55;100642.78;;;-3.87;61.90
71948;BME280;63257;55.082;38.772;2023-11-19T07:17:21;100631.78;;;-3.75;61.95
71948;BME280;63257;55.082;38.772;2023-11-19T07:19:50;100633.66;;;-3.66;63.55
71948;BME280;63257;55.082;38.772;2023-11-19T07:22:16;100625.97;;;-3.62;62.54
71948;BME280;63257;55.082;38.772;2023-11-19T07:24:41;100608.72;;;-3.64;61.64
71948;BME280;63257;55.082;38.772;2023-11-19T07:27:08;100621.00;;;-3.48;61.15
71948;BME280;63257;55.082;38.772;2023-11-19T07:29:35;100617.59;;;-3.47;60.90
71948;BME280;63257;55.082;38.772;2023-11-19T07:32:01;100624.47;;;-3.49;61.23
71948;BME280;63257;55.082;38.772;2023-11-19T07:34:28;100605.44;;;-3.55;60.34
71948;BME280;63257;55.082;38.772;2023-11-19T07:36:55;100622.84;;;-3.41;60.12
71948;BME280;63257;55.082;38.772;2023-11-19T07:39:25;100630.69;;;-3.34;61.23
71948;BME280;63257;55.082;38.772;2023-11-19T07:41:51;100614.19;;;-3.44;60.22
71948;BME280;63257;55.082;38.772;2023-11-19T07:44:17;100605.53;;;-3.48;60.57
71948;BME280;63257;55.082;38.772;2023-11-19T07:46:43;100620.22;;;-3.44;61.54
71948;BME280;63257;55.082;38.772;2023-11-19T07:49:10;100630.69;;;-3.34;60.17
71948;BME280;63257;55.082;38.772;2023-11-19T07:51:36;100607.34;;;-3.42;60.21
71948;BME280;63257;55.082;38.772;2023-11-19T07:54:02;100597.91;;;-3.38;61.14
71948;BME280;63257;55.082;38.772;2023-11-19T07:56:29;100593.91;;;-3.16;60.13
71948;BME280;63257;55.082;38.772;2023-11-19T07:58:55;100618.19;;;-3.03;59.68
71948;BME280;63257;55.082;38.772;2023-11-19T08:01:21;100616.50;;;-3.00;60.33
71948;BME280;63257;55.082;38.772;2023-11-19T08:03:49;100611.09;;;-3.21;58.90
71948;BME280;63257;55.082;38.772;2023-11-19T08:06:15;100606.56;;;-3.38;58.55
71948;BME280;63257;55.082;38.772;2023-11-19T08:08:41;100611.56;;;-3.47;58.86
71948;BME280;63257;55.082;38.772;2023-11-19T08:11:07;100609.66;;;-3.59;59.58
71948;BME280;63257;55.082;38.772;2023-11-19T08:13:32;100604.28;;;-3.73;59.16
71948;BME280;63257;55.082;38.772;2023-11-19T08:15:58;100586.09;;;-3.81;58.72
71948;BME280;63257;55.082;38.772;2023-11-19T08:18:24;100609.66;;;-3.61;58.61
71948;BME280;63257;55.082;38.772;2023-11-19T08:20:50;100614.66;;;-3.68;58.88
71948;BME280;63257;55.082;38.772;2023-11-19T08:23:20;100596.31;;;-3.88;57.83
71948;BME280;63257;55.082;38.772;2023-11-19T08:25:46;100615.16;;;-3.93;56.96
71948;BME280;63257;55.082;38.772;2023-11-19T08:28:12;100599.84;;;-3.83;57.17
71948;BME280;63257;55.082;38.772;2023-11-19T08:30:38;100597.38;;;-3.74;57.67
71948;BME280;63257;55.082;38.772;2023-11-19T08:33:05;100574.00;;;-3.85;57.76
71948;BME280;63257;55.082;38.772;2023-11-19T08:35:32;100591.41;;;-3.71;57.84
71948;BME280;63257;55.082;38.772;2023-11-19T08:37:58;100587.22;;;-3.65;58.31
71948;BME280;63257;55.082;38.772;2023-11-19T08:40:25;100578.81;;;-3.53;58.57
71948;BME280;63257;55.082;38.772;2023-11-19T08:42:51;100571.94;;;-3.51;57.32
71948;BME280;63257;55.082;38.772;2023-11-19T08:45:17;100593.00;;;-3.21;57.44
71948;BME280;63257;55.082;38.772;2023-11-19T08:47:43;100583.41;;;-3.29;57.03
71948;BME280;63257;55.082;38.772;2023-11-19T08:50:11;100589.31;;;-3.39;57.35
71948;BME280;63257;55.082;38.772;2023-11-19T08:52:37;100568.34;;;-3.62;57.33
71948;BME280;63257;55.082;38.772;2023-11-19T08:55:04;100587.75;;;-3.26;57.28
71948;BME280;63257;55.082;38.772;2023-11-19T08:57:32;100590.50;;;-3.15;56.58
71948;BME280;63257;55.082;38.772;2023-11-19T08:59:59;100583.72;;;-3.04;57.04
71948;BME280;63257;55.082;38.772;2023-11-19T09:02:25;100556.78;;;-3.26;56.06
71948;BME280;63257;55.082;38.772;2023-11-19T09:04:51;100569.53;;;-3.38;56.79
71948;BME280;63257;55.082;38.772;2023-11-19T09:07:17;100578.25;;;-3.29;57.80
71948;BME280;63257;55.082;38.772;2023-11-19T09:09:43;100576.50;;;-3.31;56.77
71948;BME280;63257;55.082;38.772;2023-11-19T09:12:09;100567.22;;;-3.17;56.95
71948;BME280;63257;55.082;38.772;2023-11-19T09:14:35;100564.84;;;-3.00;56.43
71948;BME280;63257;55.082;38.772;2023-11-19T09:17:01;100547.66;;;-2.99;56.65
71948;BME280;63257;55.082;38.772;2023-11-19T09:19:27;100547.78;;;-2.88;55.02
71948;BME280;63257;55.082;38.772;2023-11-19T09:21:53;100559.63;;;-3.06;54.04
71948;BME280;63257;55.082;38.772;2023-11-19T09:24:19;100560.41;;;-3.12;54.07
71948;BME280;63257;55.082;38.772;2023-11-19T09:26:45;100569.97;;;-3.03;55.16
71948;BME280;63257;55.082;38.772;2023-11-19T09:29:11;100566.47;;;-3.08;55.11
71948;BME280;63257;55.082;38.772;2023-11-19T09:31:38;100562.97;;;-3.13;55.01
71948;BME280;63257;55.082;38.772;2023-11-19T09:34:04;100552.56;;;-3.18;55.28
71948;BME280;63257;55.082;38.772;2023-11-19T09:36:30;100549.03;;;-3.25;54.49
71948;BME280;63257;55.082;38.772;2023-11-19T09:38:56;100552.56;;;-3.19;55.71
71948;BME280;63257;55.082;38.772;2023-11-19T09:41:23;100536.88;;;-3.35;55.66
71948;BME280;63257;55.082;38.772;2023-11-19T09:43:49;100549.25;;;-3.09;55.95
71948;BME280;63257;55.082;38.772;2023-11-19T09:46:16;100538.03;;;-3.11;55.03
71948;BME280;63257;55.082;38.772;2023-11-19T09:48:42;100543.28;;;-3.05;56.04
71948;BME280;63257;55.082;38.772;2023-11-19T09:51:09;100530.28;;;-3.11;56.12
71948;BME280;63257;55.082;38.772;2023-11-19T09:53:36;100536.97;;;-3.27;57.16
71948;BME280;63257;55.082;38.772;2023-11-19T09:56:03;100535.88;;;-3.46;56.37
71948;BME280;63257;55.082;38.772;2023-11-19T09:58:30;100522.84;;;-3.55;56.79
71948;BME280;63257;55.082;38.772;2023-11-19T10:00:57;100527.09;;;-3.58;55.73
71948;BME280;63257;55.082;38.772;2023-11-19T10:03:33;100509.66;;;-3.74;55.86
71948;BME280;63257;55.082;38.772;2023-11-19T10:06:09;100525.91;;;-3.81;56.59
71948;BME280;63257;55.082;38.772;2023-11-19T10:08:38;100506.84;;;-3.93;57.30
71948;BME280;63257;55.082;38.772;2023-11-19T10:11:08;100525.91;;;-3.81;57.12
71948;BME280;63257;55.082;38.772;2023-11-19T10:13:37;100522.41;;;-3.85;56.92
71948;BME280;63257;55.082;38.772;2023-11-19T10:16:12;100504.44;;;-3.80;56.81
71948;BME280;63257;55.082;38.772;2023-11-19T10:18:46;100519.31;;;-3.62;57.55
71948;BME280;63257;55.082;38.772;2023-11-19T10:21:12;100517.75;;;-3.49;57.61
71948;BME280;63257;55.082;38.772;2023-11-19T10:23:56;100515.94;;;-3.56;56.96
71948;BME280;63257;55.082;38.772;2023-11-19T10:26:28;100525.66;;;-3.35;56.16
71948;BME280;63257;55.082;38.772;2023-11-19T10:28:55;100529.16;;;-3.33;56.27
71948;BME280;63257;55.082;38.772;2023-11-19T10:31:21;100522.19;;;-3.39;55.30
71948;BME280;63257;55.082;38.772;2023-11-19T10:33:51;100522.22;;;-3.36;56.37
71948;BME280;63257;55.082;38.772;2023-11-19T10:36:17;100521.59;;;-3.16;55.62
71948;BME280;63257;55.082;38.772;2023-11-19T10:38:55;100495.56;;;-3.35;55.53
71948;BME280;63257;55.082;38.772;2023-11-19T10:41:32;100519.75;;;-3.30;56.24
71948;BME280;63257;55.082;38.772;2023-11-19T10:43:59;100511.03;;;-3.38;57.23
71948;BME280;63257;55.082;38.772;2023-11-19T10:46:40;100511.03;;;-3.38;56.69
71948;BME280;63257;55.082;38.772;2023-11-19T10:49:07;100500.63;;;-3.44;57.49
71948;BME280;63257;55.082;38.772;2023-11-19T10:51:33;100485.00;;;-3.53;56.78
71948;BME280;63257;55.082;38.772;2023-11-19T10:54:02;100498.94;;;-3.42;57.55
71948;BME280;63257;55.082;38.772;2023-11-19T10:56:32;100498.13;;;-3.38;57.25
71948;BME280;63257;55.082;38.772;2023-11-19T10:59:02;100469.53;;;-3.53;58.08
71948;BME280;63257;55.082;38.772;2023-11-19T11:01:59;100487.03;;;-3.31;58.25
71948;BME280;63257;55.082;38.772;2023-11-19T11:04:26;100487.06;;;-3.26;58.49
71948;BME280;63257;55.082;38.772;2023-11-19T11:06:54;100484.59;;;-3.15;58.92
71948;BME280;63257;55.082;38.772;2023-11-19T11:09:26;100485.56;;;-3.07;58.96
71948;BME280;63257;55.082;38.772;2023-11-19T11:11:54;100484.75;;;-3.01;58.89
71948;BME280;63257;55.082;38.772;2023-11-19T11:14:21;100481.34;;;-2.99;59.60
71948;BME280;63257;55.082;38.772;2023-11-19T11:16:48;100515.06;;;-2.86;59.92
71948;BME280;63257;55.082;38.772;2023-11-19T11:19:16;100506.47;;;-2.84;60.47
71948;BME280;63257;55.082;38.772;2023-11-19T11:21:52;100481.44;;;-2.93;60.55
71948;BME280;63257;55.082;38.772;2023-11-19T11:27:40;100507.41;;;-2.77;61.51
71948;BME280;63257;55.082;38.772;2023-11-19T11:30:20;100495.97;;;-3.01;62.07
71948;BME280;63257;55.082;38.772;2023-11-19T11:38:36;100512.31;;;-3.00;63.14
71948;BME280;63257;55.082;38.772;2023-11-19T11:41:15;100489.81;;;-3.11;63.66
71948;BME280;63257;55.082;38.772;2023-11-19T11:43:51;100514.81;;;-3.08;63.44
71948;BME280;63257;55.082;38.772;2023-11-19T11:49:05;100489.03;;;-3.05;62.49
71948;BME280;63257;55.082;38.772;2023-11-19T11:54:26;100456.91;;;-3.27;60.14
71948;BME280;63257;55.082;38.772;2023-11-19T11:57:08;100482.81;;;-3.24;60.79
71948;BME280;63257;55.082;38.772;2023-11-19T11:59:43;100467.34;;;-3.18;60.84
71948;BME280;63257;55.082;38.772;2023-11-19T12:02:18;100471.72;;;-3.14;60.62
71948;BME280;63257;55.082;38.772;2023-11-19T12:04:50;100441.50;;;-3.24;60.29
71948;BME280;63257;55.082;38.772;2023-11-19T12:09:48;100445.72;;;-3.29;59.09
71948;BME280;63257;55.082;38.772;2023-11-19T12:15:07;100457.06;;;-3.15;59.79
71948;BME280;63257;55.082;38.772;2023-11-19T12:17:47;100462.16;;;-3.22;59.55
71948;BME280;63257;55.082;38.772;2023-11-19T12:20:18;100458.81;;;-3.12;60.45
71948;BME280;63257;55.082;38.772;2023-11-19T12:22:46;100442.47;;;-3.13;60.49
71948;BME280;63257;55.082;38.772;2023-11-19T12:25:13;100441.50;;;-3.22;59.56
71948;BME280;63257;55.082;38.772;2023-11-19T12:27:40;100440.69;;;-3.18;59.03
71948;BME280;63257;55.082;38.772;2023-11-19T12:30:07;100447.50;;;-3.24;58.60
71948;BME280;63257;55.082;38.772;2023-11-19T12:32:38;100445.72;;;-3.29;59.92
71948;BME280;63257;55.082;38.772;2023-11-19T12:35:04;100444.06;;;-3.26;58.71
71948;BME280;63257;55.082;38.772;2023-11-19T12:37:30;100437.97;;;-3.29;59.10
71948;BME280;63257;55.082;38.772;2023-11-19T12:39:59;100423.28;;;-3.35;59.14
71948;BME280;63257;55.082;38.772;2023-11-19T12:42:38;100413.66;;;-3.50;58.58
71948;BME280;63257;55.082;38.772;2023-11-19T12:45:05;100429.97;;;-3.51;58.17
71948;BME280;63257;55.082;38.772;2023-11-19T12:47:31;100430.81;;;-3.53;58.10
71948;BME280;63257;55.082;38.772;2023-11-19T12:49:58;100420.44;;;-3.60;57.55
71948;BME280;63257;55.082;38.772;2023-11-19T12:52:23;100393.53;;;-3.77;58.77
71948;BME280;63257;55.082;38.772;2023-11-19T12:54:50;100421.25;;;-3.64;58.45
71948;BME280;63257;55.082;38.772;2023-11-19T12:57:16;100422.84;;;-3.73;58.47
71948;BME280;63257;55.082;38.772;2023-11-19T12:59:56;100412.38;;;-3.86;58.26
71948;BME280;63257;55.082;38.772;2023-11-19T13:02:22;100425.44;;;-3.70;58.29
71948;BME280;63257;55.082;38.772;2023-11-19T13:04:49;100403.88;;;-3.77;57.75